Time;durP1;ratioP1;P1;durP2;ratioP2;P2;SDS_P1;SDS_P2;PMS_P1;PMS_P2;Temp;Humidity;BMP_temperature;BMP_pressure;BME280_temperature;BME280_humidity;BME280_pressure;Samples;Min_cycle;Max_cycle;Signal;HPM_P1;HPM_P2
2023/03/22 00:01:55;;;;;;;;;;;11.90;78.40;;;;;;5033792;28;19946;-95
2023/03/22 00:04:21;;;;;;;;;;;11.90;78.50;;;;;;5032424;28;19942;-96
2023/03/22 00:06:46;;;;;;;;;;;11.80;78.70;;;;;;5032538;28;19948;-96
2023/03/22 00:09:12;;;;;;;;;;;11.70;79.00;;;;;;5033902;28;20006;-96
2023/03/22 00:11:37;;;;;;;;;;;11.70;79.20;;;;;;5033946;28;19943;-96
2023/03/22 00:14:03;;;;;;;;;;;11.60;79.30;;;;;;5032580;28;19993;-96
2023/03/22 00:16:29;;;;;;;;;;;11.60;79.20;;;;;;5034053;28;19975;-95
2023/03/22 00:18:54;;;;;;;;;;;11.50;79.20;;;;;;5033695;28;19940;-96
2023/03/22 00:21:20;;;;;;;;;;;11.40;79.90;;;;;;5033690;28;19950;-96
2023/03/22 00:23:46;;;;;;;;;;;11.40;80.20;;;;;;5037072;28;19975;-96
2023/03/22 00:26:12;;;;;;;;;;;11.40;80.60;;;;;;5052411;28;20036;-95
2023/03/22 00:28:38;;;;;;;;;;;11.40;80.50;;;;;;5037379;28;19963;-96
2023/03/22 00:31:04;;;;;;;;;;;11.40;80.80;;;;;;5037193;28;19938;-96
2023/03/22 00:33:31;;;;;;;;;;;11.40;81.10;;;;;;5035790;28;19946;-96
2023/03/22 00:35:58;;;;;;;;;;;11.40;81.20;;;;;;5052398;28;19954;-96
2023/03/22 00:38:24;;;;;;;;;;;11.40;81.00;;;;;;5037369;28;19958;-96
2023/03/22 00:40:49;;;;;;;;;;;11.30;80.80;;;;;;5035567;28;19945;-96
2023/03/22 00:43:15;;;;;;;;;;;11.20;81.20;;;;;;5052029;28;19990;-96
2023/03/22 00:45:41;;;;;;;;;;;11.20;81.80;;;;;;5035558;28;19943;-96
2023/03/22 00:48:07;;;;;;;;;;;11.30;82.00;;;;;;5036934;28;19963;-96
2023/03/22 00:50:33;;;;;;;;;;;11.30;81.90;;;;;;5037039;28;20005;-95
2023/03/22 00:52:59;;;;;;;;;;;11.30;81.90;;;;;;5036989;28;20351;-96
2023/03/22 00:55:25;;;;;;;;;;;11.20;82.90;;;;;;5036358;28;20065;-95
2023/03/22 00:57:50;;;;;;;;;;;11.30;83.50;;;;;;5036804;28;19943;-96
2023/03/22 01:00:17;;;;;;;;;;;11.20;83.60;;;;;;5036556;28;19945;-96
2023/03/22 01:02:43;;;;;;;;;;;11.30;83.70;;;;;;5036497;28;19946;-96
2023/03/22 01:05:14;;;;;;;;;;;11.20;83.70;;;;;;5036768;28;19993;-96
2023/03/22 01:07:41;;;;;;;;;;;11.20;83.80;;;;;;5036535;28;20396;-96
2023/03/22 01:10:08;;;;;;;;;;;11.20;84.30;;;;;;5036749;28;19964;-96
2023/03/22 01:12:34;;;;;;;;;;;11.30;85.00;;;;;;5036385;28;20442;-96
2023/03/22 01:14:59;;;;;;;;;;;11.30;85.00;;;;;;5036363;28;19940;-95
2023/03/22 01:17:25;;;;;;;;;;;11.40;84.80;;;;;;5034973;28;20346;-95
2023/03/22 01:19:51;;;;;;;;;;;11.40;84.10;;;;;;5036469;28;20032;-96
2023/03/22 01:22:16;;;;;;;;;;;11.50;83.70;;;;;;5036219;28;20015;-95
2023/03/22 01:24:42;;;;;;;;;;;11.50;82.90;;;;;;5036432;28;19985;-96
2023/03/22 01:27:07;;;;;;;;;;;11.40;82.40;;;;;;5034938;28;19944;-95
2023/03/22 01:29:34;;;;;;;;;;;11.40;82.10;;;;;;5034730;28;19962;-95
2023/03/22 01:32:00;;;;;;;;;;;11.30;82.90;;;;;;5034766;28;19975;-96
2023/03/22 01:34:26;;;;;;;;;;;11.20;83.10;;;;;;5034216;28;20353;-96
2023/03/22 01:36:52;;;;;;;;;;;11.10;83.50;;;;;;5036231;28;19940;-96
2023/03/22 01:39:18;;;;;;;;;;;11.10;83.70;;;;;;5036373;28;19943;-96
2023/03/22 01:41:44;;;;;;;;;;;11.30;84.10;;;;;;5035740;28;20350;-96
2023/03/22 01:44:11;;;;;;;;;;;11.30;83.80;;;;;;5035903;28;20006;-96
2023/03/22 01:46:38;;;;;;;;;;;11.20;83.20;;;;;;5035649;28;19945;-95
2023/03/22 01:49:05;;;;;;;;;;;11.20;83.60;;;;;;5035814;28;19963;-96
2023/03/22 01:51:31;;;;;;;;;;;11.20;83.50;;;;;;5034358;28;19951;-95
2023/03/22 01:54:02;;;;;;;;;;;11.30;83.70;;;;;;5035558;28;19944;-96
2023/03/22 01:56:30;;;;;;;;;;;11.30;83.80;;;;;;5035957;28;20033;-96
2023/03/22 01:58:56;;;;;;;;;;;11.30;83.60;;;;;;5035375;28;19943;-96
2023/03/22 02:01:21;;;;;;;;;;;11.20;83.50;;;;;;5035354;28;19939;-96
2023/03/22 02:03:51;;;;;;;;;;;11.10;83.30;;;;;;5035193;28;19950;-96
2023/03/22 02:06:17;;;;;;;;;;;11.10;83.40;;;;;;5033966;28;19944;-96
2023/03/22 02:08:43;;;;;;;;;;;11.10;82.90;;;;;;5033787;28;20325;-96
2023/03/22 02:11:13;;;;;;;;;;;10.90;83.40;;;;;;5033990;28;19952;-96
2023/03/22 02:13:48;;;;;;;;;;;10.80;84.20;;;;;;5033814;28;19945;-96
2023/03/22 02:16:28;;;;;;;;;;;10.80;84.10;;;;;;5035880;28;20398;-95
2023/03/22 02:19:01;;;;;;;;;;;10.80;84.20;;;;;;5033750;28;19946;-96
2023/03/22 02:21:27;;;;;;;;;;;10.80;84.30;;;;;;5035306;28;19947;-95
2023/03/22 02:24:13;;;;;;;;;;;10.70;84.60;;;;;;5035260;28;19948;-96
2023/03/22 02:26:58;;;;;;;;;;;10.80;84.80;;;;;;5033118;28;20030;-96
2023/03/22 02:29:28;;;;;;;;;;;10.80;84.80;;;;;;5033478;28;19967;-96
2023/03/22 02:32:10;;;;;;;;;;;10.70;84.70;;;;;;5033480;28;19951;-96
2023/03/22 02:34:54;;;;;;;;;;;10.80;84.90;;;;;;5033427;28;19954;-94
2023/03/22 02:37:32;;;;;;;;;;;10.80;84.90;;;;;;5033351;28;19983;-96
2023/03/22 02:40:11;;;;;;;;;;;10.80;85.20;;;;;;5033429;28;19989;-96
2023/03/22 02:42:42;;;;;;;;;;;10.70;85.40;;;;;;5034750;28;19951;-96
2023/03/22 02:45:08;;;;;;;;;;;10.70;85.20;;;;;;5032471;28;20000;-96
2023/03/22 02:47:37;;;;;;;;;;;10.60;85.40;;;;;;5033141;28;19980;-96
2023/03/22 02:50:02;;;;;;;;;;;10.60;85.40;;;;;;5034695;28;19959;-96
2023/03/22 02:52:38;;;;;;;;;;;10.60;85.50;;;;;;5033119;28;19943;-95
2023/03/22 02:55:12;;;;;;;;;;;10.60;85.70;;;;;;5032953;28;19982;-96
2023/03/22 02:57:38;;;;;;;;;;;10.60;85.90;;;;;;5033011;28;19942;-96
2023/03/22 03:00:12;;;;;;;;;;;10.60;85.90;;;;;;5034561;28;19941;-96
2023/03/22 03:02:44;;;;;;;;;;;10.60;86.10;;;;;;5034218;28;19940;-96
2023/03/22 03:05:10;;;;;;;;;;;10.60;86.10;;;;;;5034539;28;19945;-96
2023/03/22 03:07:37;;;;;;;;;;;10.60;86.10;;;;;;5034340;28;20292;-96
2023/03/22 03:10:03;;;;;;;;;;;10.70;85.90;;;;;;5032873;28;20010;-95
2023/03/22 03:12:29;;;;;;;;;;;10.60;85.70;;;;;;5034450;28;19950;-96
2023/03/22 03:14:55;;;;;;;;;;;10.60;85.70;;;;;;5032852;28;19947;-96
2023/03/22 03:17:23;;;;;;;;;;;10.40;85.40;;;;;;5032812;28;20405;-96
2023/03/22 03:20:01;;;;;;;;;;;10.40;85.40;;;;;;5034235;28;19939;-96
2023/03/22 03:22:51;;;;;;;;;;;10.30;86.00;;;;;;5032753;28;20098;-96
2023/03/22 03:25:23;;;;;;;;;;;10.20;86.50;;;;;;5034357;28;20386;-96
2023/03/22 03:27:56;;;;;;;;;;;10.20;86.70;;;;;;5032720;28;19992;-96
2023/03/22 03:30:25;;;;;;;;;;;10.30;86.90;;;;;;5049375;28;20401;-96
2023/03/22 03:33:00;;;;;;;;;;;10.30;86.60;;;;;;5034251;28;19963;-96
2023/03/22 03:35:28;;;;;;;;;;;10.40;86.40;;;;;;5034195;28;19981;-96
2023/03/22 03:38:06;;;;;;;;;;;10.40;86.10;;;;;;5033178;28;19997;-95
2023/03/22 03:40:34;;;;;;;;;;;10.40;86.00;;;;;;5033937;28;19941;-96
2023/03/22 03:43:01;;;;;;;;;;;10.40;86.10;;;;;;5034299;28;20049;-96
2023/03/22 03:45:27;;;;;;;;;;;10.40;86.30;;;;;;5034002;28;19943;-96
2023/03/22 03:47:56;;;;;;;;;;;10.40;86.20;;;;;;5034105;28;20026;-95
2023/03/22 03:50:23;;;;;;;;;;;10.40;86.20;;;;;;5033806;28;19947;-95
2023/03/22 03:52:50;;;;;;;;;;;10.30;86.70;;;;;;5032780;28;19942;-96
2023/03/22 03:55:15;;;;;;;;;;;10.30;87.20;;;;;;5033661;28;19975;-96
2023/03/22 03:57:41;;;;;;;;;;;10.30;87.20;;;;;;5036100;28;19941;-95
2023/03/22 04:00:08;;;;;;;;;;;10.30;87.30;;;;;;5037646;28;20354;-96
2023/03/22 04:02:33;;;;;;;;;;;10.30;87.80;;;;;;5037567;28;19935;-96
2023/03/22 04:04:59;;;;;;;;;;;10.20;87.90;;;;;;5038132;28;19949;-95
2023/03/22 04:07:24;;;;;;;;;;;10.20;88.00;;;;;;5036653;28;19949;-96
2023/03/22 04:09:50;;;;;;;;;;;10.20;87.90;;;;;;5037709;28;20013;-95
2023/03/22 04:12:16;;;;;;;;;;;10.10;87.80;;;;;;5037397;28;20284;-96
2023/03/22 04:14:42;;;;;;;;;;;10.10;87.70;;;;;;5036202;28;20317;-96
2023/03/22 04:17:08;;;;;;;;;;;10.10;88.10;;;;;;5037693;28;19948;-96
2023/03/22 04:19:33;;;;;;;;;;;10.10;88.40;;;;;;5037288;28;19941;-96
2023/03/22 04:21:59;;;;;;;;;;;10.10;88.80;;;;;;5037609;28;19947;-95
2023/03/22 04:24:25;;;;;;;;;;;10.10;89.10;;;;;;5037218;28;19947;-95
2023/03/22 04:26:51;;;;;;;;;;;10.00;88.60;;;;;;5035999;28;19951;-96
2023/03/22 04:29:17;;;;;;;;;;;10.00;88.20;;;;;;5035753;28;19968;-95
2023/03/22 04:31:42;;;;;;;;;;;10.00;88.00;;;;;;5037531;28;19948;-96
2023/03/22 04:34:08;;;;;;;;;;;10.00;87.80;;;;;;5052197;28;20370;-96
2023/03/22 04:36:38;;;;;;;;;;;10.00;87.80;;;;;;5037230;28;19942;-96
2023/03/22 04:39:09;;;;;;;;;;;9.90;87.10;;;;;;5035636;28;19952;-96
2023/03/22 04:41:35;;;;;;;;;;;9.90;87.20;;;;;;5037572;28;19939;-96
2023/03/22 04:44:02;;;;;;;;;;;10.00;87.30;;;;;;5036758;28;19956;-96
2023/03/22 04:46:31;;;;;;;;;;;10.00;87.80;;;;;;5037119;28;19996;-95
2023/03/22 04:48:57;;;;;;;;;;;9.90;87.80;;;;;;5036570;28;20411;-96
2023/03/22 04:51:23;;;;;;;;;;;9.90;87.70;;;;;;5036274;28;19970;-96
2023/03/22 04:53:48;;;;;;;;;;;9.80;87.50;;;;;;5036641;28;20087;-95
2023/03/22 04:56:14;;;;;;;;;;;9.80;87.50;;;;;;5036432;28;19976;-95
2023/03/22 04:58:41;;;;;;;;;;;9.70;87.50;;;;;;5051839;28;19941;-96
2023/03/22 05:01:08;;;;;;;;;;;9.70;87.40;;;;;;5036905;28;19968;-96
2023/03/22 05:03:33;;;;;;;;;;;9.60;87.60;;;;;;5036447;28;20047;-95
2023/03/22 05:06:00;;;;;;;;;;;9.50;87.80;;;;;;5035157;28;20410;-96
2023/03/22 05:08:27;;;;;;;;;;;9.50;87.90;;;;;;5034922;28;19965;-96
2023/03/22 05:10:54;;;;;;;;;;;9.40;88.30;;;;;;5036481;28;19941;-96
2023/03/22 05:13:20;;;;;;;;;;;9.20;89.00;;;;;;5035163;28;19940;-96
2023/03/22 05:15:47;;;;;;;;;;;9.10;89.60;;;;;;5036577;28;19941;-95
2023/03/22 05:18:14;;;;;;;;;;;9.10;89.60;;;;;;5034975;28;19946;-96
2023/03/22 05:20:40;;;;;;;;;;;9.10;89.80;;;;;;5051449;28;19973;-96
2023/03/22 05:23:06;;;;;;;;;;;9.10;89.50;;;;;;5036332;28;19948;-96
2023/03/22 05:25:31;;;;;;;;;;;9.10;89.40;;;;;;5034778;28;20039;-96
2023/03/22 05:28:00;;;;;;;;;;;9.00;89.10;;;;;;5034660;28;19948;-95
2023/03/22 05:30:27;;;;;;;;;;;9.00;89.50;;;;;;5035993;28;20405;-94
2023/03/22 05:32:56;;;;;;;;;;;9.10;90.50;;;;;;5034732;28;19942;-96
2023/03/22 05:35:21;;;;;;;;;;;9.20;91.00;;;;;;5036593;28;19940;-96
2023/03/22 05:37:47;;;;;;;;;;;9.10;90.70;;;;;;5034754;28;19949;-95
2023/03/22 05:40:13;;;;;;;;;;;9.00;90.60;;;;;;5036305;28;19939;-95
2023/03/22 05:42:39;;;;;;;;;;;9.00;90.70;;;;;;5034609;28;19945;-95
2023/03/22 05:45:05;;;;;;;;;;;9.00;90.40;;;;;;5034454;28;19991;-96
2023/03/22 05:47:30;;;;;;;;;;;8.90;90.40;;;;;;5036008;28;19941;-96
2023/03/22 05:49:56;;;;;;;;;;;8.90;90.50;;;;;;5050975;28;19973;-96
2023/03/22 05:52:21;;;;;;;;;;;8.90;90.50;;;;;;5036145;28;20399;-96
2023/03/22 05:54:47;;;;;;;;;;;8.90;91.30;;;;;;5033902;28;19990;-96
2023/03/22 05:57:13;;;;;;;;;;;8.90;91.70;;;;;;5035467;28;19982;-96
2023/03/22 05:59:39;;;;;;;;;;;9.00;91.80;;;;;;5050609;28;20038;-95
2023/03/22 06:02:05;;;;;;;;;;;9.10;92.00;;;;;;5035420;28;19939;-95
2023/03/22 06:04:30;;;;;;;;;;;9.30;91.90;;;;;;5035466;28;20371;-95
2023/03/22 06:06:56;;;;;;;;;;;9.40;91.80;;;;;;5034094;28;20035;-96
2023/03/22 06:09:21;;;;;;;;;;;9.60;90.90;;;;;;5035952;28;19962;-96
2023/03/22 06:11:47;;;;;;;;;;;9.90;90.30;;;;;;5033976;28;19967;-95
2023/03/22 06:14:13;;;;;;;;;;;10.00;89.80;;;;;;5033920;28;19985;-96
2023/03/22 06:16:39;;;;;;;;;;;10.20;89.30;;;;;;5033951;28;19953;-96
2023/03/22 06:19:05;;;;;;;;;;;10.30;89.20;;;;;;5035568;28;20314;-96
2023/03/22 06:21:31;;;;;;;;;;;10.40;89.10;;;;;;5035084;28;20029;-96
2023/03/22 06:23:56;;;;;;;;;;;10.60;89.10;;;;;;5035094;28;19950;-96
2023/03/22 06:26:22;;;;;;;;;;;10.70;89.00;;;;;;5034778;28;19940;-96
2023/03/22 06:28:49;;;;;;;;;;;10.80;89.00;;;;;;5033410;28;19968;-96
2023/03/22 06:31:15;;;;;;;;;;;11.00;88.90;;;;;;5034842;28;19942;-96
2023/03/22 06:33:41;;;;;;;;;;;11.10;88.40;;;;;;5034844;28;20025;-96
2023/03/22 06:36:07;;;;;;;;;;;11.20;88.30;;;;;;5034988;28;19943;-96
2023/03/22 06:38:32;;;;;;;;;;;11.30;87.80;;;;;;5035337;28;19951;-96
2023/03/22 06:40:58;;;;;;;;;;;11.50;87.00;;;;;;5035310;28;19939;-95
2023/03/22 06:43:24;;;;;;;;;;;11.70;86.30;;;;;;5035266;28;19964;-96
2023/03/22 06:45:49;;;;;;;;;;;11.80;85.80;;;;;;5033997;28;20092;-95
2023/03/22 06:48:15;;;;;;;;;;;12.00;85.20;;;;;;5035105;28;20304;-96
2023/03/22 06:50:44;;;;;;;;;;;12.10;84.50;;;;;;5034350;28;19951;-96
2023/03/22 06:53:10;;;;;;;;;;;12.30;84.20;;;;;;5035662;28;20026;-96
2023/03/22 06:55:36;;;;;;;;;;;12.40;83.60;;;;;;5034702;28;20059;-96
2023/03/22 06:58:01;;;;;;;;;;;12.50;83.20;;;;;;5034715;28;20406;-95
2023/03/22 07:00:27;;;;;;;;;;;12.60;83.20;;;;;;5034550;28;20361;-96
2023/03/22 07:02:53;;;;;;;;;;;12.60;83.00;;;;;;5033239;28;20362;-96
2023/03/22 07:05:19;;;;;;;;;;;12.70;82.80;;;;;;5033690;28;19954;-96
2023/03/22 07:07:45;;;;;;;;;;;12.90;82.80;;;;;;5035127;28;20341;-96
2023/03/22 07:10:11;;;;;;;;;;;12.90;82.80;;;;;;5033879;28;19964;-96
2023/03/22 07:12:36;;;;;;;;;;;12.90;82.70;;;;;;5050060;28;19944;-95
2023/03/22 07:15:02;;;;;;;;;;;12.80;82.50;;;;;;5034631;28;19967;-96
2023/03/22 07:17:28;;;;;;;;;;;12.80;82.70;;;;;;5034951;28;19993;-94
2023/03/22 07:19:53;;;;;;;;;;;12.80;82.80;;;;;;5034752;28;20359;-96
2023/03/22 07:22:21;;;;;;;;;;;12.90;82.60;;;;;;5034961;28;20358;-96
2023/03/22 07:24:48;;;;;;;;;;;13.00;82.00;;;;;;5049756;28;20313;-96
2023/03/22 07:27:13;;;;;;;;;;;12.90;82.10;;;;;;5035459;28;19980;-95
2023/03/22 07:29:40;;;;;;;;;;;12.90;82.40;;;;;;5035667;28;19960;-94
2023/03/22 07:32:06;;;;;;;;;;;13.00;82.50;;;;;;5034476;28;19937;-96
2023/03/22 07:34:31;;;;;;;;;;;13.10;82.50;;;;;;5036123;28;20355;-96
2023/03/22 07:36:57;;;;;;;;;;;13.20;82.50;;;;;;5038552;28;19943;-96
2023/03/22 07:39:27;;;;;;;;;;;13.30;82.10;;;;;;5044491;28;19942;-96
2023/03/22 07:41:53;;;;;;;;;;;13.50;81.00;;;;;;5042016;28;19940;-96
2023/03/22 07:44:19;;;;;;;;;;;13.70;79.80;;;;;;5043059;28;19970;-96
2023/03/22 07:46:45;;;;;;;;;;;13.90;78.70;;;;;;5041560;28;19947;-96
2023/03/22 07:49:11;;;;;;;;;;;14.00;78.60;;;;;;5038795;28;19972;-96
2023/03/22 07:51:36;;;;;;;;;;;14.00;78.90;;;;;;5038525;28;19944;-96
2023/03/22 07:54:02;;;;;;;;;;;14.00;79.00;;;;;;5045615;22;19972;-96
2023/03/22 07:56:31;;;;;;;;;;;14.10;78.60;;;;;;5039003;28;20348;-96
2023/03/22 07:58:57;;;;;;;;;;;14.10;78.60;;;;;;5041609;28;19939;-96
2023/03/22 08:01:23;;;;;;;;;;;14.20;78.50;;;;;;5024516;28;20047;-96
2023/03/22 08:03:49;;;;;;;;;;;14.20;78.80;;;;;;5023631;28;19945;-96
2023/03/22 08:06:18;;;;;;;;;;;14.30;79.00;;;;;;5044108;28;19935;-96
2023/03/22 08:08:44;;;;;;;;;;;14.40;78.70;;;;;;5043993;28;19965;-96
2023/03/22 08:11:11;;;;;;;;;;;14.50;78.80;;;;;;5027968;28;20034;-96
2023/03/22 08:13:37;;;;;;;;;;;14.50;77.60;;;;;;5044656;28;20036;-96
2023/03/22 08:16:13;;;;;;;;;;;14.60;77.70;;;;;;5042365;28;19984;-96
2023/03/22 08:18:38;;;;;;;;;;;14.60;77.80;;;;;;5042069;28;19942;-96
2023/03/22 08:21:04;;;;;;;;;;;14.80;77.00;;;;;;5048013;28;19941;-96
2023/03/22 08:23:30;;;;;;;;;;;14.80;77.30;;;;;;5045871;28;19937;-96
2023/03/22 08:25:55;;;;;;;;;;;14.80;77.40;;;;;;5026374;28;20031;-96
2023/03/22 08:28:21;;;;;;;;;;;15.00;77.00;;;;;;5040519;28;19967;-96
2023/03/22 08:30:48;;;;;;;;;;;15.00;76.30;;;;;;5041615;28;20496;-95
2023/03/22 08:33:14;;;;;;;;;;;14.90;76.50;;;;;;5028439;28;19939;-96
2023/03/22 08:35:40;;;;;;;;;;;15.00;76.10;;;;;;5044431;28;19937;-96
2023/03/22 08:38:06;;;;;;;;;;;15.10;74.90;;;;;;5026846;28;20377;-96
2023/03/22 08:40:34;;;;;;;;;;;15.20;74.60;;;;;;5027978;28;19941;-94
2023/03/22 08:43:00;;;;;;;;;;;15.30;75.30;;;;;;5043585;28;19939;-96
2023/03/22 08:45:27;;;;;;;;;;;15.30;75.00;;;;;;5033145;28;19986;-95
2023/03/22 08:47:52;;;;;;;;;;;15.30;75.30;;;;;;5052512;28;19938;-96
2023/03/22 08:50:18;;;;;;;;;;;15.40;75.20;;;;;;5045243;28;20428;-96
2023/03/22 08:52:44;;;;;;;;;;;15.50;75.20;;;;;;5042225;28;19935;-95
2023/03/22 08:55:09;;;;;;;;;;;15.60;75.40;;;;;;5044512;28;20043;-95
2023/03/22 08:57:35;;;;;;;;;;;15.80;74.70;;;;;;5044334;28;20392;-96
2023/03/22 09:00:03;;;;;;;;;;;16.10;73.80;;;;;;5042466;28;19997;-96
2023/03/22 09:02:28;;;;;;;;;;;16.20;73.20;;;;;;5026413;28;19986;-96
2023/03/22 09:04:54;;;;;;;;;;;16.30;73.30;;;;;;5026597;28;19944;-96
2023/03/22 09:07:20;;;;;;;;;;;16.30;73.30;;;;;;5041801;28;20053;-96
2023/03/22 09:09:45;;;;;;;;;;;16.50;72.60;;;;;;5039224;28;19949;-95
2023/03/22 09:12:11;;;;;;;;;;;16.70;70.80;;;;;;5038075;28;19940;-96
2023/03/22 09:14:37;;;;;;;;;;;16.70;69.90;;;;;;5039683;28;19941;-96
2023/03/22 09:17:03;;;;;;;;;;;16.70;71.70;;;;;;5021806;28;19945;-96
2023/03/22 09:19:28;;;;;;;;;;;16.70;70.60;;;;;;5039676;28;19949;-96
2023/03/22 09:21:54;;;;;;;;;;;16.60;71.40;;;;;;5021024;28;19951;-96
2023/03/22 09:24:20;;;;;;;;;;;16.70;70.80;;;;;;5038177;28;19992;-96
2023/03/22 09:26:45;;;;;;;;;;;16.80;69.90;;;;;;5038509;28;19946;-95
2023/03/22 09:29:11;;;;;;;;;;;16.90;70.20;;;;;;5037603;28;19966;-95
2023/03/22 09:31:37;;;;;;;;;;;16.90;67.50;;;;;;5036898;28;19940;-95
2023/03/22 09:34:03;;;;;;;;;;;16.90;66.60;;;;;;5019038;28;19946;-94
2023/03/22 09:36:28;;;;;;;;;;;17.00;68.80;;;;;;5037359;28;20029;-96
2023/03/22 09:38:58;;;;;;;;;;;17.10;69.00;;;;;;5036512;28;20007;-95
2023/03/22 09:41:38;;;;;;;;;;;17.20;68.50;;;;;;5036827;28;19950;-96
2023/03/22 09:44:07;;;;;;;;;;;17.20;68.80;;;;;;5036096;28;20003;-95
2023/03/22 09:46:35;;;;;;;;;;;17.30;67.10;;;;;;5042541;28;19980;-96
2023/03/22 09:51:36;;;;;;;;;;;17.60;67.20;;;;;;5138761;22;19975;-96
2023/03/22 09:54:06;;;;;;;;;;;17.60;65.30;;;;;;5094606;28;19953;-96
2023/03/22 09:56:36;;;;;;;;;;;17.60;66.40;;;;;;5096727;28;19926;-96
2023/03/22 09:59:20;;;;;;;;;;;17.80;65.00;;;;;;5098881;28;19947;-96
2023/03/22 10:01:49;;;;;;;;;;;18.10;63.60;;;;;;5111155;28;19952;-96
2023/03/22 10:04:15;;;;;;;;;;;18.30;63.10;;;;;;5097754;28;19945;-96
2023/03/22 10:06:44;;;;;;;;;;;18.50;62.50;;;;;;5096042;28;19968;-96
2023/03/22 10:09:29;;;;;;;;;;;18.50;60.90;;;;;;5090691;28;19948;-96
2023/03/22 10:12:15;;;;;;;;;;;18.30;60.50;;;;;;5095864;28;19945;-96
2023/03/22 10:14:43;;;;;;;;;;;18.30;60.30;;;;;;5095213;28;20024;-96
2023/03/22 10:17:12;;;;;;;;;;;18.30;62.00;;;;;;5091977;28;19942;-96
2023/03/22 10:19:50;;;;;;;;;;;18.30;60.70;;;;;;5094552;28;19988;-96
2023/03/22 10:22:17;;;;;;;;;;;18.30;62.20;;;;;;5092184;28;19949;-96
2023/03/22 10:24:45;;;;;;;;;;;18.20;58.30;;;;;;5089214;28;19983;-96
2023/03/22 10:27:15;;;;;;;;;;;18.10;61.50;;;;;;5087965;28;19974;-96
2023/03/22 10:29:43;;;;;;;;;;;18.10;61.70;;;;;;5088627;28;19962;-96
2023/03/22 10:32:35;;;;;;;;;;;18.10;63.10;;;;;;5091918;28;19951;-96
2023/03/22 10:35:11;;;;;;;;;;;18.30;60.20;;;;;;5084364;28;19944;-96
2023/03/22 10:37:39;;;;;;;;;;;18.50;58.60;;;;;;5084376;28;19937;-96
2023/03/22 10:40:06;;;;;;;;;;;18.60;60.30;;;;;;5082057;28;19960;-96
2023/03/22 10:42:34;;;;;;;;;;;18.80;60.10;;;;;;5083556;28;19943;-96
2023/03/22 10:45:26;;;;;;;;;;;18.80;57.70;;;;;;5086252;28;20403;-96
2023/03/22 10:47:56;;;;;;;;;;;18.80;59.30;;;;;;5078768;28;19952;-96
2023/03/22 10:50:28;;;;;;;;;;;18.90;58.70;;;;;;5086026;28;19965;-96
2023/03/22 10:53:11;;;;;;;;;;;19.00;60.60;;;;;;5092701;28;19978;-96
2023/03/22 10:55:44;;;;;;;;;;;19.00;56.20;;;;;;5092697;28;19952;-96
2023/03/22 10:58:13;;;;;;;;;;;19.10;57.60;;;;;;5093836;28;19970;-96
2023/03/22 11:00:43;;;;;;;;;;;19.20;56.90;;;;;;5091720;28;19974;-96
2023/03/22 11:03:22;;;;;;;;;;;19.20;57.40;;;;;;5091378;28;19944;-96
2023/03/22 11:05:59;;;;;;;;;;;19.40;56.60;;;;;;5092627;28;19940;-96
2023/03/22 11:08:47;;;;;;;;;;;19.40;58.10;;;;;;5092090;28;19931;-96
2023/03/22 11:11:44;;;;;;;;;;;19.50;58.20;;;;;;5057944;28;20408;-96
2023/03/22 11:14:11;;;;;;;;;;;19.80;56.40;;;;;;5093410;28;19939;-96
2023/03/22 11:16:52;;;;;;;;;;;20.00;55.70;;;;;;5095535;28;19921;-96
2023/03/22 11:19:28;;;;;;;;;;;20.30;56.30;;;;;;5096386;28;19962;-96
2023/03/22 11:21:58;;;;;;;;;;;20.40;55.60;;;;;;5111874;28;20015;-96
2023/03/22 11:24:29;;;;;;;;;;;20.50;55.40;;;;;;5095115;28;19927;-96
2023/03/22 11:27:05;;;;;;;;;;;20.50;53.30;;;;;;5093914;28;19944;-96
2023/03/22 11:29:43;;;;;;;;;;;20.50;50.80;;;;;;5094563;28;19969;-96
2023/03/22 11:32:20;;;;;;;;;;;20.40;50.20;;;;;;5094065;28;19941;-96
2023/03/22 11:34:48;;;;;;;;;;;20.30;50.70;;;;;;5092558;28;19945;-96
2023/03/22 11:37:17;;;;;;;;;;;20.10;50.00;;;;;;5093848;28;20000;-96
2023/03/22 11:42:41;;;;;;;;;;;20.40;48.50;;;;;;5095956;28;19939;-96
2023/03/22 11:45:09;;;;;;;;;;;20.70;48.90;;;;;;5093045;28;20491;-96
2023/03/22 11:47:37;;;;;;;;;;;20.60;47.40;;;;;;5108260;28;19944;-96
2023/03/22 11:50:10;;;;;;;;;;;20.50;49.00;;;;;;5081608;28;19952;-96
2023/03/22 11:52:36;;;;;;;;;;;20.50;48.40;;;;;;5073553;28;19975;-95
2023/03/22 11:55:02;;;;;;;;;;;20.60;48.50;;;;;;5072501;28;19999;-96
2023/03/22 11:57:30;;;;;;;;;;;20.80;48.70;;;;;;5073980;28;19944;-96
2023/03/22 12:00:02;;;;;;;;;;;20.90;47.80;;;;;;5072234;28;19971;-95
2023/03/22 12:02:33;;;;;;;;;;;20.90;47.50;;;;;;5073487;28;19940;-96
2023/03/22 12:05:04;;;;;;;;;;;20.90;50.10;;;;;;5074224;28;20029;-94
2023/03/22 12:07:30;;;;;;;;;;;21.10;49.00;;;;;;5072280;28;19945;-95
2023/03/22 12:09:58;;;;;;;;;;;21.20;48.30;;;;;;5073665;28;19934;-96
2023/03/22 12:12:44;;;;;;;;;;;21.60;49.00;;;;;;5072161;28;19942;-95
2023/03/22 12:15:30;;;;;;;;;;;21.50;48.00;;;;;;5072718;28;19943;-96
2023/03/22 12:18:15;;;;;;;;;;;21.40;47.20;;;;;;5073850;28;19968;-96
2023/03/22 12:20:40;;;;;;;;;;;21.80;47.00;;;;;;5075742;28;20366;-96
2023/03/22 12:23:16;;;;;;;;;;;22.10;44.70;;;;;;5077107;28;19939;-96
2023/03/22 12:26:02;;;;;;;;;;;22.60;44.70;;;;;;5076978;28;19945;-96
2023/03/22 12:28:34;;;;;;;;;;;23.00;45.50;;;;;;5074801;28;20456;-95
2023/03/22 12:30:59;;;;;;;;;;;23.50;45.00;;;;;;5076791;28;19938;-96
2023/03/22 12:33:30;;;;;;;;;;;24.00;43.20;;;;;;5076851;28;20017;-96
2023/03/22 12:36:03;;;;;;;;;;;24.50;43.70;;;;;;5077037;28;20035;-96
2023/03/22 12:38:49;;;;;;;;;;;25.10;41.30;;;;;;5075513;28;20009;-94
2023/03/22 12:41:16;;;;;;;;;;;25.00;40.90;;;;;;5075944;28;20002;-96
2023/03/22 12:43:53;;;;;;;;;;;25.50;39.70;;;;;;5076614;28;19962;-96
2023/03/22 12:46:20;;;;;;;;;;;25.80;38.70;;;;;;5077042;28;19938;-96
2023/03/22 12:51:21;;;;;;;;;;;25.30;38.50;;;;;;5066581;22;19980;-95
2023/03/22 12:53:49;;;;;;;;;;;25.10;36.00;;;;;;4997527;28;19952;-95
2023/03/22 12:56:16;;;;;;;;;;;26.10;35.30;;;;;;4997500;28;19945;-96
2023/03/22 12:58:45;;;;;;;;;;;26.90;34.20;;;;;;4996981;28;19972;-94
2023/03/22 13:01:17;;;;;;;;;;;26.40;33.00;;;;;;4996837;28;20296;-94
2023/03/22 13:03:45;;;;;;;;;;;25.90;34.60;;;;;;4996919;28;19948;-96
2023/03/22 13:06:36;;;;;;;;;;;25.70;36.10;;;;;;4997104;28;19943;-95
2023/03/22 13:09:11;;;;;;;;;;;26.20;35.20;;;;;;4974132;28;19947;-96
2023/03/22 13:11:37;;;;;;;;;;;26.80;35.60;;;;;;4996811;28;19988;-96
2023/03/22 13:14:03;;;;;;;;;;;26.70;33.70;;;;;;4997049;28;19936;-95
2023/03/22 13:16:48;;;;;;;;;;;26.40;36.00;;;;;;4997102;28;19943;-96
2023/03/22 13:19:34;;;;;;;;;;;25.80;36.70;;;;;;4996590;28;20054;-95
2023/03/22 13:22:17;;;;;;;;;;;25.20;36.70;;;;;;4996050;28;20035;-96
2023/03/22 13:24:58;;;;;;;;;;;25.30;35.30;;;;;;4996367;28;20024;-95
2023/03/22 13:27:34;;;;;;;;;;;25.70;35.20;;;;;;4996624;28;20036;-96
2023/03/22 13:30:03;;;;;;;;;;;25.80;37.70;;;;;;4995537;28;19938;-96
2023/03/22 13:32:32;;;;;;;;;;;26.20;35.50;;;;;;4996248;28;20049;-96
2023/03/22 13:34:58;;;;;;;;;;;26.80;35.80;;;;;;4996370;28;19937;-96
2023/03/22 13:37:36;;;;;;;;;;;27.30;34.90;;;;;;4978758;28;19939;-95
2023/03/22 13:40:21;;;;;;;;;;;27.80;34.00;;;;;;4995231;28;20059;-96
2023/03/22 13:42:47;;;;;;;;;;;27.60;34.30;;;;;;5002696;28;19964;-96
2023/03/22 13:45:30;;;;;;;;;;;27.20;32.70;;;;;;4997491;28;19959;-96
2023/03/22 13:48:08;;;;;;;;;;;27.50;32.90;;;;;;5006421;28;19945;-96
2023/03/22 13:50:34;;;;;;;;;;;28.30;33.40;;;;;;5005557;28;20081;-96
2023/03/22 13:53:13;;;;;;;;;;;28.70;33.10;;;;;;4999616;28;19978;-96
2023/03/22 13:55:41;;;;;;;;;;;28.50;31.80;;;;;;4980586;28;19986;-96
2023/03/22 13:58:10;;;;;;;;;;;28.30;31.40;;;;;;4996052;28;19946;-95
2023/03/22 14:00:38;;;;;;;;;;;27.90;31.10;;;;;;4978412;28;19992;-96
2023/03/22 14:03:14;;;;;;;;;;;27.60;34.90;;;;;;4995737;28;20432;-96
2023/03/22 14:05:41;;;;;;;;;;;27.50;33.60;;;;;;4996077;28;20441;-95
2023/03/22 14:08:15;;;;;;;;;;;28.00;31.70;;;;;;4996229;28;19953;-96
2023/03/22 14:10:43;;;;;;;;;;;27.80;31.80;;;;;;4978206;28;19960;-95
2023/03/22 14:13:22;;;;;;;;;;;27.30;32.00;;;;;;4995652;28;20040;-96
2023/03/22 14:15:53;;;;;;;;;;;27.30;32.80;;;;;;4995685;28;19944;-96
2023/03/22 14:18:30;;;;;;;;;;;27.70;33.40;;;;;;4995519;28;19943;-96
2023/03/22 14:21:06;;;;;;;;;;;27.20;31.40;;;;;;4978011;28;19976;-96
2023/03/22 14:23:35;;;;;;;;;;;26.40;34.00;;;;;;4977977;28;19944;-95
2023/03/22 14:26:06;;;;;;;;;;;25.70;34.90;;;;;;4995712;28;19945;-96
2023/03/22 14:28:39;;;;;;;;;;;26.50;34.20;;;;;;4996059;28;19943;-96
2023/03/22 14:31:05;;;;;;;;;;;27.30;32.10;;;;;;4977593;28;19982;-96
2023/03/22 14:33:36;;;;;;;;;;;27.60;31.10;;;;;;4995490;28;20421;-96
2023/03/22 14:36:04;;;;;;;;;;;28.20;31.40;;;;;;4995695;28;19966;-96
2023/03/22 14:38:32;;;;;;;;;;;28.30;31.60;;;;;;4995272;28;20065;-96